Terminal Aerodrome Forecast
Issued by NWS Mt. Holly, NJ

Home | Current Version | Previous Version | Text Only | Print | Product List | Glossary On
Versions: 1 2 3 4 5 6 7 8 9 10 11 12 13 14 15 16 17 18 19 20
000
FTUS41 KPHI 021400 AAA
TAFILG
TAF AMD
KILG 021440Z 0215/0312 01009KT P6SM BKN025
      TEMPO 0215/0217 SCT025 BKN035
     FM021700 02009KT P6SM BKN035
     FM022100 08006KT P6SM BKN040
     FM030000 VRB04KT P6SM SCT045
     FM030900 VRB03KT 4SM BR SCT005 SCT015=

USA.gov is the U.S. government's official web portal to all federal, state and local government web resources and services.